Time;durP1;ratioP1;P1;durP2;ratioP2;P2;SDS_P1;SDS_P2;PMS_P1;PMS_P2;Temp;Humidity;BMP_temperature;BMP_pressure;BME280_temperature;BME280_humidity;BME280_pressure;Samples;Min_cycle;Max_cycle;Signal;HPM_P1;HPM_P2
2020/12/25 00:02:01;;;;;;;16.40;15.70;;;2.90;93.40;;;;;;5033445;28;20713;-78
2020/12/25 00:04:28;;;;;;;16.83;16.13;;;2.90;93.40;;;;;;5042444;28;20715;-78
2020/12/25 00:06:54;;;;;;;15.82;15.13;;;2.90;93.50;;;;;;5054261;28;20208;-78
2020/12/25 00:09:22;;;;;;;16.60;15.80;;;2.90;93.70;;;;;;5051305;28;20305;-78
2020/12/25 00:11:48;;;;;;;17.10;16.30;;;2.70;94.10;;;;;;5053047;28;20205;-78
2020/12/25 00:14:15;;;;;;;17.27;16.48;;;2.80;94.60;;;;;;5045194;28;20193;-78
2020/12/25 00:16:41;;;;;;;15.65;14.95;;;2.90;94.40;;;;;;5032806;28;20236;-78
2020/12/25 00:19:07;;;;;;;15.80;15.10;;;2.90;93.90;;;;;;5033021;28;20734;-78
2020/12/25 00:21:33;;;;;;;15.70;15.00;;;2.90;93.50;;;;;;5032763;28;20221;-78
2020/12/25 00:24:00;;;;;;;14.63;14.02;;;2.90;94.00;;;;;;5038079;28;20192;-78
2020/12/25 00:26:28;;;;;;;15.40;14.75;;;3.10;93.70;;;;;;5052661;28;20582;-78
2020/12/25 00:28:56;;;;;;;14.95;14.35;;;3.10;93.50;;;;;;5052417;28;20209;-78
2020/12/25 00:31:28;;;;;;;15.05;14.45;;;3.10;93.70;;;;;;5052779;28;20203;-78
2020/12/25 00:33:55;;;;;;;14.60;14.00;;;3.20;93.30;;;;;;5048252;28;20225;-79
2020/12/25 00:36:26;;;;;;;14.60;14.00;;;3.20;93.60;;;;;;5032631;28;20213;-78
2020/12/25 00:38:52;;;;;;;14.80;14.20;;;3.30;92.70;;;;;;5032589;28;20281;-78
2020/12/25 00:41:19;;;;;;;15.20;14.60;;;3.30;92.30;;;;;;5032689;28;20213;-78
2020/12/25 00:43:46;;;;;;;14.80;14.20;;;3.30;92.00;;;;;;5032763;28;20197;-78
2020/12/25 00:46:13;;;;;;;14.60;13.98;;;3.30;91.50;;;;;;5038610;28;20205;-78
2020/12/25 00:48:40;;;;;;;14.40;13.80;;;3.30;91.90;;;;;;5051856;28;20196;-79
2020/12/25 00:51:12;;;;;;;14.70;14.10;;;3.30;91.80;;;;;;5052521;28;20188;-78
2020/12/25 00:53:39;;;;;;;15.05;14.45;;;3.40;91.90;;;;;;5052549;28;20216;-78
2020/12/25 00:56:05;;;;;;;15.10;14.43;;;3.30;91.50;;;;;;5052310;28;20268;-78
2020/12/25 00:58:32;;;;;;;14.57;13.98;;;3.40;91.90;;;;;;5043082;28;20199;-78
2020/12/25 01:00:59;;;;;;;14.85;14.25;;;3.40;92.00;;;;;;5032758;28;20699;-78
2020/12/25 01:03:25;;;;;;;14.80;14.20;;;3.40;92.10;;;;;;5032509;28;20228;-78
2020/12/25 01:05:52;;;;;;;15.40;14.70;;;3.40;91.70;;;;;;5032367;28;20271;-78
2020/12/25 01:08:18;;;;;;;14.90;14.30;;;3.40;91.30;;;;;;5039261;28;20199;-78
2020/12/25 01:10:45;;;;;;;15.18;14.57;;;3.50;91.20;;;;;;5052062;28;20199;-78
2020/12/25 01:13:11;;;;;;;14.82;14.23;;;3.40;91.10;;;;;;5052448;28;20254;-78
2020/12/25 01:15:38;;;;;;;15.32;14.63;;;3.40;91.30;;;;;;5051665;28;20693;-78
2020/12/25 01:18:05;;;;;;;14.57;13.98;;;3.30;91.40;;;;;;5047115;28;20190;-78
2020/12/25 01:20:33;;;;;;;15.18;14.48;;;3.30;91.50;;;;;;5032054;28;20221;-78
2020/12/25 01:22:59;;;;;;;15.15;14.45;;;3.30;91.60;;;;;;5032379;28;20201;-78
2020/12/25 01:25:26;;;;;;;14.80;14.20;;;3.30;91.60;;;;;;5032857;28;20341;-78
2020/12/25 01:27:52;;;;;;;15.98;15.27;;;3.20;92.10;;;;;;5039121;28;20646;-79
2020/12/25 01:30:18;;;;;;;16.15;15.45;;;3.30;92.60;;;;;;5056294;28;20189;-78
2020/12/25 01:32:45;;;;;;;16.05;15.32;;;3.40;92.60;;;;;;5058233;28;20226;-78
2020/12/25 01:35:12;;;;;;;15.68;14.88;;;3.40;92.00;;;;;;5064206;28;20201;-78
2020/12/25 01:37:38;;;;;;;15.43;14.73;;;3.40;92.00;;;;;;5042666;28;20250;-78
2020/12/25 01:40:05;;;;;;;15.82;15.13;;;3.50;91.50;;;;;;5035605;28;20271;-78
2020/12/25 01:42:33;;;;;;;15.65;14.95;;;3.50;92.00;;;;;;5035989;28;20197;-78
2020/12/25 01:45:00;;;;;;;15.45;14.75;;;3.50;91.20;;;;;;5035618;28;20208;-78
2020/12/25 01:47:26;;;;;;;16.38;15.60;;;3.50;91.10;;;;;;5046167;28;20213;-78
2020/12/25 01:49:53;;;;;;;15.80;15.10;;;3.60;91.10;;;;;;5055162;28;20200;-78
2020/12/25 01:52:21;;;;;;;15.55;14.85;;;3.50;90.80;;;;;;5056110;28;20196;-78
2020/12/25 01:54:48;;;;;;;16.02;15.32;;;3.50;91.30;;;;;;5055722;28;20211;-78
2020/12/25 01:57:15;;;;;;;15.40;14.75;;;3.50;91.60;;;;;;5045944;28;20583;-79
2020/12/25 01:59:42;;;;;;;15.30;14.60;;;3.50;91.20;;;;;;5035420;28;20212;-78
2020/12/25 02:02:10;;;;;;;15.80;15.10;;;3.60;91.60;;;;;;5035559;28;20209;-78
2020/12/25 02:04:37;;;;;;;16.02;15.32;;;3.70;91.10;;;;;;5035755;28;20242;-78
2020/12/25 02:07:04;;;;;;;16.33;15.52;;;3.70;91.10;;;;;;5035453;28;20225;-78
2020/12/25 02:09:31;;;;;;;15.85;15.05;;;3.70;91.20;;;;;;5047009;28;20200;-78
2020/12/25 02:11:57;;;;;;;16.02;15.23;;;3.70;91.60;;;;;;5055301;28;20199;-78
2020/12/25 02:14:23;;;;;;;15.77;14.98;;;3.80;91.50;;;;;;5055141;28;20762;-78
2020/12/25 02:16:50;;;;;;;16.90;16.00;;;3.80;91.30;;;;;;5055022;28;20221;-78
2020/12/25 02:19:16;;;;;;;17.10;16.10;;;3.70;91.50;;;;;;5046250;28;20192;-78
2020/12/25 02:21:43;;;;;;;16.20;15.40;;;3.70;91.40;;;;;;5035632;28;20217;-78
2020/12/25 02:24:10;;;;;;;16.02;15.13;;;3.80;91.20;;;;;;5035355;28;20573;-78
2020/12/25 02:26:36;;;;;;;16.80;15.80;;;3.80;91.30;;;;;;5034943;28;20220;-78
2020/12/25 02:29:03;;;;;;;16.35;15.45;;;3.80;91.40;;;;;;5042382;28;20201;-78
2020/12/25 02:31:29;;;;;;;15.98;15.18;;;3.80;91.30;;;;;;5055155;28;20193;-78
2020/12/25 02:33:56;;;;;;;16.35;15.55;;;3.80;91.10;;;;;;5053281;28;20243;-78
2020/12/25 02:36:22;;;;;;;16.13;15.13;;;3.80;91.70;;;;;;5054422;28;20311;-78
2020/12/25 02:38:49;;;;;;;17.45;16.55;;;3.80;91.60;;;;;;5047940;28;20196;-78
2020/12/25 02:41:15;;;;;;;17.33;16.23;;;3.80;91.70;;;;;;5034893;28;20244;-78
2020/12/25 02:43:42;;;;;;;17.30;16.40;;;3.70;91.80;;;;;;5037894;28;20193;-78
2020/12/25 02:46:08;;;;;;;17.05;16.05;;;3.70;92.00;;;;;;5047060;28;20249;-78
2020/12/25 02:48:34;;;;;;;16.13;15.23;;;3.70;92.40;;;;;;5043027;28;20201;-78
2020/12/25 02:51:01;;;;;;;17.05;16.00;;;3.80;92.20;;;;;;5056210;28;20213;-78
2020/12/25 02:53:27;;;;;;;16.90;16.00;;;3.80;91.90;;;;;;5054156;28;20616;-78
2020/12/25 02:55:54;;;;;;;17.50;16.23;;;3.80;91.50;;;;;;5054293;28;20232;-78
2020/12/25 02:58:21;;;;;;;17.80;16.40;;;3.80;91.80;;;;;;5047319;28;20186;-78
2020/12/25 03:00:47;;;;;;;17.33;16.30;;;3.90;91.70;;;;;;5034392;28;20213;-78
2020/12/25 03:03:13;;;;;;;16.88;15.88;;;3.70;91.50;;;;;;5034405;28;20198;-78
2020/12/25 03:05:40;;;;;;;17.00;16.05;;;3.80;91.70;;;;;;5047967;28;20225;-78
2020/12/25 03:08:06;;;;;;;17.63;16.63;;;3.80;91.80;;;;;;5054207;28;20204;-78
2020/12/25 03:10:33;;;;;;;17.27;16.17;;;3.90;91.40;;;;;;5054206;28;20209;-78
2020/12/25 03:13:00;;;;;;;16.98;16.00;;;3.80;91.00;;;;;;5053493;28;20197;-78
2020/12/25 03:15:26;;;;;;;16.67;15.77;;;3.70;91.70;;;;;;5053964;28;20213;-78
2020/12/25 03:17:52;;;;;;;17.98;17.08;;;3.80;91.60;;;;;;5054147;28;20202;-79
2020/12/25 03:20:19;;;;;;;17.80;16.83;;;3.70;91.50;;;;;;5054108;28;20209;-79
2020/12/25 03:22:45;;;;;;;17.70;16.70;;;3.70;92.00;;;;;;5054021;28;20254;-78
2020/12/25 03:25:12;;;;;;;18.08;16.98;;;3.90;91.90;;;;;;5035643;28;20251;-78
2020/12/25 03:27:38;;;;;;;16.83;15.95;;;3.90;91.30;;;;;;5034844;28;20540;-79
2020/12/25 03:30:05;;;;;;;17.90;17.00;;;3.90;91.00;;;;;;5038999;28;20197;-78
2020/12/25 03:32:32;;;;;;;17.40;16.50;;;3.70;91.20;;;;;;5041882;28;20540;-78
2020/12/25 03:34:58;;;;;;;18.20;17.00;;;3.60;91.90;;;;;;5033949;28;20193;-78
2020/12/25 03:37:24;;;;;;;19.02;17.83;;;3.80;91.80;;;;;;5033492;28;20730;-78
2020/12/25 03:39:51;;;;;;;18.23;17.02;;;3.70;91.40;;;;;;5033230;28;20209;-78
2020/12/25 03:42:17;;;;;;;17.90;16.90;;;3.80;91.80;;;;;;5038277;28;20193;-78
2020/12/25 03:44:43;;;;;;;17.20;16.30;;;3.80;91.40;;;;;;5053398;28;20193;-78
2020/12/25 03:47:10;;;;;;;17.95;16.95;;;3.90;91.10;;;;;;5053338;28;20270;-78
2020/12/25 03:49:37;;;;;;;18.85;17.75;;;3.90;90.90;;;;;;5053046;28;20256;-78
2020/12/25 03:52:03;;;;;;;18.95;17.77;;;3.90;90.70;;;;;;5039558;28;20276;-78
2020/12/25 03:54:29;;;;;;;17.75;16.85;;;4.00;90.40;;;;;;5033436;28;20193;-78
2020/12/25 03:56:56;;;;;;;18.45;17.45;;;3.90;90.60;;;;;;5033073;28;20710;-78
2020/12/25 03:59:22;;;;;;;17.35;16.35;;;3.80;91.40;;;;;;5034235;28;20201;-78
2020/12/25 04:01:48;;;;;;;18.33;17.13;;;3.80;91.40;;;;;;5033178;28;20282;-78
2020/12/25 04:04:16;;;;;;;19.45;18.35;;;3.90;91.00;;;;;;5033238;28;20203;-76
2020/12/25 04:06:42;;;;;;;20.23;19.10;;;3.90;90.60;;;;;;5032870;28;20695;-76
2020/12/25 04:09:08;;;;;;;19.15;17.92;;;3.90;90.90;;;;;;5050123;28;20750;-78
2020/12/25 04:11:35;;;;;;;17.88;16.95;;;3.90;90.60;;;;;;5051916;28;20197;-78
2020/12/25 04:14:01;;;;;;;19.70;18.60;;;3.80;90.70;;;;;;5051299;28;20285;-78
2020/12/25 04:16:29;;;;;;;18.50;17.27;;;3.90;90.90;;;;;;5052880;28;20304;-78
2020/12/25 04:18:56;;;;;;;18.17;17.17;;;3.90;90.70;;;;;;5053581;28;20197;-78
2020/12/25 04:21:24;;;;;;;18.58;17.52;;;3.90;90.80;;;;;;5053001;28;20242;-78
2020/12/25 04:23:51;;;;;;;18.17;17.17;;;3.90;90.50;;;;;;5052066;28;20532;-78
2020/12/25 04:26:17;;;;;;;18.95;17.92;;;3.90;90.80;;;;;;5052811;28;20247;-78
2020/12/25 04:28:44;;;;;;;18.45;17.42;;;3.90;90.90;;;;;;5052744;28;20204;-78
2020/12/25 04:31:10;;;;;;;18.38;17.17;;;4.00;90.30;;;;;;5052894;28;20192;-78
2020/12/25 04:33:36;;;;;;;17.10;16.20;;;3.90;90.20;;;;;;5040656;28;20667;-78
2020/12/25 04:36:03;;;;;;;18.15;17.15;;;3.90;90.70;;;;;;5032768;28;20702;-78
2020/12/25 04:38:30;;;;;;;18.42;17.35;;;4.00;90.90;;;;;;5032808;28;20193;-78
2020/12/25 04:40:56;;;;;;;18.25;17.25;;;4.10;90.80;;;;;;5036862;28;20212;-78
2020/12/25 04:43:25;;;;;;;18.20;17.20;;;4.10;90.40;;;;;;5052806;28;20201;-78
2020/12/25 04:45:53;;;;;;;18.05;17.15;;;4.00;90.00;;;;;;5052093;28;20224;-78
2020/12/25 04:48:19;;;;;;;18.52;17.52;;;3.90;90.30;;;;;;5052582;28;20535;-78
2020/12/25 04:50:46;;;;;;;17.00;16.10;;;3.80;90.70;;;;;;5048698;28;20185;-78
2020/12/25 04:53:12;;;;;;;17.42;16.52;;;3.80;91.40;;;;;;5032519;28;20194;-78
2020/12/25 04:55:39;;;;;;;18.15;17.23;;;3.80;91.70;;;;;;5032053;28;20274;-78
2020/12/25 04:58:06;;;;;;;18.38;17.38;;;3.70;91.10;;;;;;5032558;28;20246;-78
2020/12/25 05:00:32;;;;;;;17.75;16.85;;;3.70;91.60;;;;;;5035528;28;20275;-76
2020/12/25 05:02:59;;;;;;;16.42;15.63;;;3.70;91.30;;;;;;5038864;28;20658;-76
2020/12/25 05:05:30;;;;;;;18.33;17.33;;;3.60;91.40;;;;;;5038802;28;20260;-76
2020/12/25 05:07:57;;;;;;;18.48;17.48;;;3.60;91.90;;;;;;5039118;28;20204;-76
2020/12/25 05:10:24;;;;;;;17.33;16.40;;;3.70;91.90;;;;;;5038785;28;20234;-76
2020/12/25 05:12:51;;;;;;;16.83;15.93;;;3.70;91.20;;;;;;5058407;28;20550;-77
2020/12/25 05:15:18;;;;;;;17.40;16.30;;;3.70;91.50;;;;;;5058623;28;20196;-76
2020/12/25 05:17:45;;;;;;;17.65;16.75;;;3.90;91.00;;;;;;5058260;28;20261;-76
2020/12/25 05:20:12;;;;;;;16.77;15.88;;;3.80;91.00;;;;;;5047604;28;20204;-76
2020/12/25 05:22:39;;;;;;;17.10;16.20;;;3.70;91.10;;;;;;5038911;28;20201;-76
2020/12/25 05:25:07;;;;;;;18.20;17.20;;;3.60;91.60;;;;;;5038837;28;20586;-76
2020/12/25 05:27:34;;;;;;;17.30;16.40;;;3.70;91.60;;;;;;5043623;28;20266;-76
2020/12/25 05:30:04;;;;;;;18.75;17.75;;;3.80;91.60;;;;;;5058572;28;20203;-76
2020/12/25 05:32:32;;;;;;;17.48;16.42;;;3.80;91.20;;;;;;5058738;28;20197;-76
2020/12/25 05:35:00;;;;;;;18.05;17.15;;;3.90;90.80;;;;;;5058699;28;20579;-76
2020/12/25 05:37:33;;;;;;;19.80;18.50;;;3.90;91.00;;;;;;5054364;28;20617;-76
2020/12/25 05:40:03;;;;;;;17.50;16.60;;;3.90;91.10;;;;;;5038391;28;20193;-76
2020/12/25 05:42:43;;;;;;;19.65;18.65;;;3.90;91.30;;;;;;5038648;28;20223;-76
2020/12/25 05:45:11;;;;;;;17.75;16.80;;;3.80;91.00;;;;;;5038514;28;20201;-76
2020/12/25 05:47:37;;;;;;;18.20;17.15;;;3.80;90.80;;;;;;5043635;28;20199;-76
2020/12/25 05:50:03;;;;;;;18.67;17.67;;;3.80;91.10;;;;;;5058094;28;20641;-76
2020/12/25 05:52:30;;;;;;;17.52;16.52;;;3.90;90.80;;;;;;5038305;28;20202;-76
2020/12/25 05:54:58;;;;;;;18.25;17.25;;;3.90;90.50;;;;;;5038514;28;20609;-77
2020/12/25 05:57:29;;;;;;;18.25;17.35;;;3.80;90.90;;;;;;5041197;28;20243;-76
2020/12/25 06:00:01;;;;;;;17.27;16.38;;;3.80;91.40;;;;;;5058149;28;20729;-77
2020/12/25 06:02:31;;;;;;;19.70;18.50;;;3.70;91.20;;;;;;5038468;28;20247;-76
2020/12/25 06:04:58;;;;;;;19.00;17.90;;;3.70;91.80;;;;;;5040244;28;20204;-76
2020/12/25 06:07:28;;;;;;;20.10;18.85;;;3.70;91.80;;;;;;5058064;28;20216;-76
2020/12/25 06:09:59;;;;;;;19.70;18.50;;;3.70;92.20;;;;;;5058275;28;20204;-76
2020/12/25 06:12:38;;;;;;;20.10;18.90;;;3.70;92.20;;;;;;5037219;28;20685;-76
2020/12/25 06:15:08;;;;;;;20.52;19.27;;;3.80;91.90;;;;;;5037639;28;20194;-76
2020/12/25 06:17:39;;;;;;;19.70;18.50;;;3.80;91.40;;;;;;5055123;28;20660;-76
2020/12/25 06:20:07;;;;;;;19.95;18.75;;;3.90;91.80;;;;;;5054760;28;20192;-76
2020/12/25 06:22:38;;;;;;;21.90;20.60;;;3.80;91.20;;;;;;5040560;28;20716;-76
2020/12/25 06:25:08;;;;;;;20.40;19.10;;;3.70;92.20;;;;;;5035233;28;20197;-76
2020/12/25 06:27:35;;;;;;;19.92;18.73;;;3.80;92.40;;;;;;5035346;28;20251;-77
2020/12/25 06:30:03;;;;;;;20.90;19.63;;;3.80;92.00;;;;;;5034857;28;20895;-76
2020/12/25 06:32:32;;;;;;;22.30;21.00;;;3.80;91.70;;;;;;5053551;28;20254;-76
2020/12/25 06:35:01;;;;;;;20.58;19.25;;;3.90;91.50;;;;;;5054865;28;20193;-76
2020/12/25 06:37:28;;;;;;;21.13;19.83;;;3.90;91.40;;;;;;5053942;28;20243;-76
2020/12/25 06:39:57;;;;;;;22.10;20.77;;;3.90;91.10;;;;;;5054636;28;20200;-76
2020/12/25 06:42:28;;;;;;;22.25;20.48;;;3.70;91.40;;;;;;5054618;28;20283;-76
2020/12/25 06:44:56;;;;;;;21.45;20.20;;;3.70;91.80;;;;;;5054409;28;20197;-76
2020/12/25 06:47:28;;;;;;;22.17;20.67;;;3.70;91.80;;;;;;5038852;28;20217;-76
2020/12/25 06:49:55;;;;;;;22.33;20.83;;;3.60;92.00;;;;;;5043174;28;20672;-76
2020/12/25 06:52:32;;;;;;;21.85;20.45;;;3.70;92.40;;;;;;5052998;28;20199;-76
2020/12/25 06:54:58;;;;;;;20.70;19.55;;;3.70;91.90;;;;;;5034633;28;20197;-76
2020/12/25 06:57:28;;;;;;;21.00;19.70;;;3.60;92.10;;;;;;5034290;28;20224;-76
2020/12/25 06:59:58;;;;;;;21.60;20.30;;;3.70;91.90;;;;;;5041619;28;20666;-76
2020/12/25 07:02:26;;;;;;;21.52;20.20;;;3.70;91.90;;;;;;5049700;28;20213;-76
2020/12/25 07:05:00;;;;;;;20.52;19.25;;;3.80;91.30;;;;;;5054271;28;20558;-76
2020/12/25 07:07:32;;;;;;;21.40;20.00;;;3.70;91.20;;;;;;5054055;28;20266;-76
2020/12/25 07:10:06;;;;;;;20.63;19.48;;;3.80;91.20;;;;;;5054112;28;20250;-76
2020/12/25 07:12:32;;;;;;;21.60;20.30;;;3.70;91.00;;;;;;5040486;28;20480;-76
2020/12/25 07:14:59;;;;;;;21.52;20.23;;;3.60;91.30;;;;;;5051945;28;20201;-76
2020/12/25 07:17:26;;;;;;;19.77;18.58;;;3.70;91.20;;;;;;5053773;28;20216;-76
2020/12/25 07:19:52;;;;;;;19.90;18.70;;;3.80;91.30;;;;;;5053989;28;20196;-76
2020/12/25 07:22:20;;;;;;;19.75;18.65;;;3.60;90.80;;;;;;5042343;28;20213;-76
2020/12/25 07:24:48;;;;;;;20.15;18.75;;;3.60;90.80;;;;;;5033264;28;20193;-76
2020/12/25 07:27:15;;;;;;;20.25;19.15;;;3.50;91.40;;;;;;5033702;28;20267;-76
2020/12/25 07:29:43;;;;;;;20.35;19.23;;;3.40;92.00;;;;;;5051340;28;20197;-76
2020/12/25 07:32:10;;;;;;;20.25;19.15;;;3.50;91.50;;;;;;5053783;28;20193;-76
2020/12/25 07:34:37;;;;;;;19.63;18.52;;;3.40;91.80;;;;;;5053674;28;20262;-76
2020/12/25 07:37:03;;;;;;;19.58;18.48;;;3.40;91.90;;;;;;5047304;28;20213;-76
2020/12/25 07:39:30;;;;;;;20.13;18.92;;;3.30;92.40;;;;;;5033455;28;20223;-76
2020/12/25 07:41:58;;;;;;;19.15;18.05;;;3.40;92.40;;;;;;5033482;28;20227;-76
2020/12/25 07:44:25;;;;;;;18.13;17.15;;;3.40;92.40;;;;;;5033398;28;20288;-76
2020/12/25 07:46:52;;;;;;;20.10;18.90;;;3.50;92.40;;;;;;5035542;28;20261;-76
2020/12/25 07:49:19;;;;;;;18.63;17.63;;;3.50;92.10;;;;;;5053391;28;20662;-76
2020/12/25 07:51:48;;;;;;;18.80;17.80;;;3.50;92.20;;;;;;5053084;28;20189;-76
2020/12/25 07:54:15;;;;;;;17.85;16.95;;;3.60;91.90;;;;;;5053338;28;20676;-76
2020/12/25 07:56:42;;;;;;;19.92;18.83;;;3.60;91.90;;;;;;5050601;28;20221;-76
2020/12/25 07:59:10;;;;;;;19.17;18.17;;;3.60;92.10;;;;;;5033290;28;20198;-76
2020/12/25 08:01:36;;;;;;;19.50;18.50;;;3.40;92.10;;;;;;5033484;28;20252;-76
2020/12/25 08:04:04;;;;;;;19.90;18.70;;;3.50;92.40;;;;;;5033229;28;20758;-76
2020/12/25 08:06:32;;;;;;;18.48;17.58;;;3.30;92.10;;;;;;5032690;28;20685;-76
2020/12/25 08:09:03;;;;;;;18.80;17.80;;;3.20;93.10;;;;;;5032603;28;20197;-76
2020/12/25 08:11:31;;;;;;;19.25;18.25;;;3.20;93.60;;;;;;5032955;28;20193;-76
2020/12/25 08:14:03;;;;;;;19.20;18.17;;;3.20;93.60;;;;;;5033254;28;20194;-76
2020/12/25 08:16:31;;;;;;;20.27;19.17;;;3.30;93.00;;;;;;5032834;28;20290;-76
2020/12/25 08:18:57;;;;;;;19.80;18.60;;;3.30;93.30;;;;;;5032992;28;20612;-76
2020/12/25 08:21:30;;;;;;;19.45;18.35;;;3.30;93.30;;;;;;5033133;28;20247;-76
2020/12/25 08:23:57;;;;;;;20.38;18.98;;;3.40;93.10;;;;;;5035033;28;20544;-76
2020/12/25 08:26:30;;;;;;;20.17;18.98;;;3.50;92.90;;;;;;5032596;28;20266;-76
2020/12/25 08:28:57;;;;;;;21.75;20.33;;;3.40;92.80;;;;;;5032948;28;20223;-76
2020/12/25 08:31:23;;;;;;;20.90;19.70;;;3.40;92.90;;;;;;5032850;28;20193;-76
2020/12/25 08:33:54;;;;;;;21.40;20.10;;;3.30;93.00;;;;;;5041448;28;20193;-77
2020/12/25 08:36:21;;;;;;;21.90;20.60;;;3.40;93.20;;;;;;5052389;28;20242;-76
2020/12/25 08:38:47;;;;;;;22.88;21.38;;;3.40;93.40;;;;;;5052617;28;20226;-76
2020/12/25 08:41:14;;;;;;;23.23;21.73;;;3.50;93.40;;;;;;5052177;28;20608;-76
2020/12/25 08:43:41;;;;;;;22.92;21.33;;;3.50;93.00;;;;;;5044762;28;20197;-76
2020/12/25 08:46:07;;;;;;;25.27;23.13;;;3.60;93.00;;;;;;5032246;28;20232;-77
2020/12/25 08:48:47;;;;;;;24.20;22.25;;;3.60;92.60;;;;;;5032677;28;20197;-78
2020/12/25 08:51:16;;;;;;;24.10;22.30;;;3.40;93.00;;;;;;5032675;28;20562;-78
2020/12/25 08:53:50;;;;;;;24.92;22.90;;;3.50;93.50;;;;;;5033163;28;20193;-78
2020/12/25 08:56:18;;;;;;;23.02;21.20;;;3.60;93.10;;;;;;5032472;28;20216;-78
2020/12/25 08:58:55;;;;;;;26.75;24.63;;;3.70;93.10;;;;;;5032520;28;20204;-78
2020/12/25 09:01:22;;;;;;;25.77;23.83;;;3.80;92.70;;;;;;5032429;28;20223;-78
2020/12/25 09:03:49;;;;;;;25.10;23.25;;;3.80;92.70;;;;;;5033024;28;20197;-78
2020/12/25 09:06:16;;;;;;;25.67;23.67;;;3.90;92.50;;;;;;5035962;28;20708;-78
2020/12/25 09:08:42;;;;;;;26.10;24.20;;;3.80;92.30;;;;;;5046840;28;20196;-79
2020/12/25 09:11:09;;;;;;;24.83;22.90;;;3.80;92.20;;;;;;5053969;28;20224;-78
2020/12/25 09:13:36;;;;;;;27.30;25.10;;;3.90;92.10;;;;;;5052763;28;20203;-78
2020/12/25 09:16:04;;;;;;;26.15;24.35;;;3.90;92.00;;;;;;5049470;28;20267;-78
2020/12/25 09:18:30;;;;;;;25.05;23.15;;;4.00;91.80;;;;;;5032673;28;20288;-78
2020/12/25 09:20:57;;;;;;;25.88;23.88;;;4.10;91.00;;;;;;5037336;28;20266;-78
2020/12/25 09:23:25;;;;;;;24.58;22.60;;;4.10;91.10;;;;;;5033844;28;20280;-78
2020/12/25 09:25:51;;;;;;;25.70;23.80;;;4.20;90.70;;;;;;5032468;28;20224;-78
2020/12/25 09:28:17;;;;;;;27.20;25.10;;;4.20;91.10;;;;;;5052311;28;20197;-78
2020/12/25 09:30:44;;;;;;;26.27;24.38;;;4.20;90.90;;;;;;5052198;28;20477;-78
2020/12/25 09:33:10;;;;;;;25.67;23.40;;;4.20;90.40;;;;;;5052226;28;20197;-78
2020/12/25 09:35:36;;;;;;;25.75;23.85;;;4.20;90.80;;;;;;5052065;28;20217;-78
2020/12/25 09:38:03;;;;;;;26.67;24.77;;;4.20;90.10;;;;;;5033416;28;20202;-78
2020/12/25 09:40:30;;;;;;;25.30;23.50;;;4.20;90.30;;;;;;5031629;28;20742;-78
2020/12/25 09:42:56;;;;;;;28.27;26.15;;;4.10;91.40;;;;;;5032262;28;20197;-78
2020/12/25 09:45:23;;;;;;;27.23;25.02;;;4.20;91.40;;;;;;5031773;28;20231;-78
2020/12/25 09:47:50;;;;;;;25.65;23.75;;;4.40;90.60;;;;;;5034832;28;20193;-78
2020/12/25 09:50:16;;;;;;;26.73;24.63;;;4.40;89.80;;;;;;5035912;28;20201;-78
2020/12/25 09:52:43;;;;;;;25.17;23.38;;;4.50;90.10;;;;;;5035777;28;20201;-78
2020/12/25 09:55:09;;;;;;;24.63;22.60;;;4.50;90.10;;;;;;5035938;28;20196;-78
2020/12/25 09:57:36;;;;;;;25.10;23.30;;;4.60;89.50;;;;;;5035534;28;20186;-76
2020/12/25 10:00:08;;;;;;;25.67;23.80;;;4.80;89.20;;;;;;5053692;28;20197;-76
2020/12/25 10:02:35;;;;;;;24.70;23.20;;;5.00;88.50;;;;;;5055459;28;20213;-76
2020/12/25 10:05:01;;;;;;;25.95;23.98;;;5.00;87.10;;;;;;5055208;28;20659;-76
2020/12/25 10:07:28;;;;;;;24.17;22.20;;;4.80;87.40;;;;;;5054984;28;20250;-76
2020/12/25 10:09:54;;;;;;;24.30;22.70;;;4.80;88.00;;;;;;5037672;28;20205;-76
2020/12/25 10:12:20;;;;;;;25.80;24.00;;;4.90;88.10;;;;;;5035323;28;20193;-76
2020/12/25 10:14:48;;;;;;;23.92;22.33;;;5.00;87.10;;;;;;5035321;28;20224;-77
2020/12/25 10:17:14;;;;;;;25.23;23.63;;;5.00;87.00;;;;;;5035060;28;20222;-76
2020/12/25 10:19:40;;;;;;;24.15;22.58;;;5.00;87.00;;;;;;5036116;28;20258;-76
2020/12/25 10:22:06;;;;;;;24.20;22.65;;;5.00;87.30;;;;;;5055090;28;20221;-76
2020/12/25 10:24:33;;;;;;;23.70;22.10;;;5.00;85.80;;;;;;5055114;28;20198;-76
2020/12/25 10:26:59;;;;;;;22.10;20.60;;;5.00;85.90;;;;;;5054788;28;20225;-76
2020/12/25 10:29:26;;;;;;;22.42;21.02;;;5.00;86.20;;;;;;5041825;28;20193;-76
2020/12/25 10:31:53;;;;;;;22.90;21.40;;;5.00;85.90;;;;;;5035306;28;20191;-78
2020/12/25 10:34:20;;;;;;;20.98;19.58;;;4.80;86.00;;;;;;5035639;28;20263;-78
2020/12/25 10:36:46;;;;;;;21.83;20.42;;;4.80;86.40;;;;;;5035067;28;20213;-78
2020/12/25 10:39:13;;;;;;;23.17;21.58;;;4.60;86.90;;;;;;5045604;28;20251;-78
2020/12/25 10:41:40;;;;;;;22.67;21.27;;;4.50;87.60;;;;;;5055124;28;20308;-78
2020/12/25 10:44:07;;;;;;;22.13;20.60;;;4.30;88.50;;;;;;5055097;28;20196;-78
2020/12/25 10:46:34;;;;;;;22.90;21.50;;;4.30;89.10;;;;;;5052061;28;20208;-78
2020/12/25 10:49:02;;;;;;;21.55;20.25;;;4.50;89.30;;;;;;5034870;28;20263;-78
2020/12/25 10:51:28;;;;;;;22.40;20.83;;;4.60;88.50;;;;;;5034849;28;20193;-78
2020/12/25 10:53:54;;;;;;;22.80;21.40;;;4.70;89.10;;;;;;5034940;28;20204;-78
2020/12/25 10:56:21;;;;;;;22.63;21.13;;;4.80;88.10;;;;;;5034509;28;20360;-78
2020/12/25 10:58:48;;;;;;;23.38;21.95;;;4.70;88.10;;;;;;5013849;28;20198;-78
2020/12/25 11:01:24;;;;;;;23.92;22.20;;;4.80;88.50;;;;;;5014791;28;20725;-78
2020/12/25 11:03:51;;;;;;;25.10;23.40;;;4.90;87.80;;;;;;5014736;28;20617;-78
2020/12/25 11:06:19;;;;;;;22.58;21.17;;;5.00;87.80;;;;;;5016728;28;20217;-78
2020/12/25 11:08:47;;;;;;;24.25;22.65;;;5.00;87.70;;;;;;5034158;28;20587;-78
2020/12/25 11:11:14;;;;;;;21.77;20.48;;;5.00;86.70;;;;;;5034512;28;20197;-78
2020/12/25 11:13:42;;;;;;;23.48;21.85;;;4.80;85.20;;;;;;5036068;28;20200;-78
2020/12/25 11:16:08;;;;;;;22.92;21.42;;;4.60;85.70;;;;;;5053897;28;20219;-78
2020/12/25 11:18:34;;;;;;;22.88;21.48;;;4.60;85.80;;;;;;5056711;28;20197;-78
2020/12/25 11:21:01;;;;;;;22.73;21.35;;;4.60;86.20;;;;;;5054110;28;20242;-78
2020/12/25 11:23:28;;;;;;;21.58;20.27;;;4.50;87.00;;;;;;5037867;28;20662;-78
2020/12/25 11:25:54;;;;;;;23.52;22.02;;;4.50;85.80;;;;;;5033842;28;20217;-78
2020/12/25 11:28:20;;;;;;;22.05;20.75;;;4.50;86.00;;;;;;5033891;28;20202;-78
2020/12/25 11:30:47;;;;;;;23.00;21.50;;;4.50;86.40;;;;;;5033853;28;20613;-78
2020/12/25 11:33:13;;;;;;;23.70;22.08;;;4.60;85.80;;;;;;5047797;28;20189;-78
2020/12/25 11:35:39;;;;;;;22.52;21.23;;;4.60;85.30;;;;;;5053541;28;20256;-78
2020/12/25 11:38:06;;;;;;;23.23;21.63;;;4.40;85.40;;;;;;5053959;28;20211;-78
2020/12/25 11:40:33;;;;;;;21.35;19.90;;;4.60;86.10;;;;;;5042724;28;20732;-78
2020/12/25 11:42:59;;;;;;;21.77;20.48;;;4.60;85.10;;;;;;5033712;28;20656;-78
2020/12/25 11:45:25;;;;;;;22.58;21.08;;;4.60;85.10;;;;;;5033380;28;20197;-78
2020/12/25 11:47:52;;;;;;;23.08;21.45;;;4.60;84.40;;;;;;5033828;28;20227;-78
2020/12/25 11:50:18;;;;;;;22.27;20.90;;;4.70;83.90;;;;;;5042397;28;20196;-78
2020/12/25 11:52:44;;;;;;;22.15;20.65;;;4.70;83.70;;;;;;5053623;28;20254;-78
2020/12/25 11:55:11;;;;;;;22.48;21.13;;;4.60;84.10;;;;;;5053509;28;20547;-78
2020/12/25 11:57:38;;;;;;;21.40;20.17;;;4.70;83.00;;;;;;5053561;28;20655;-78
2020/12/25 12:00:04;;;;;;;23.98;22.25;;;4.80;82.60;;;;;;5033869;28;20193;-78
2020/12/25 12:02:31;;;;;;;24.92;23.25;;;4.80;82.40;;;;;;5036936;28;20682;-78
2020/12/25 12:04:57;;;;;;;23.33;22.02;;;4.80;82.70;;;;;;5053337;28;20227;-78
2020/12/25 12:07:23;;;;;;;22.80;21.20;;;4.80;82.90;;;;;;5053179;28;20594;-78
2020/12/25 12:09:50;;;;;;;23.80;22.30;;;4.80;82.30;;;;;;5035486;28;20205;-78
2020/12/25 12:12:16;;;;;;;22.30;21.00;;;4.60;82.20;;;;;;5034120;28;20201;-78
2020/12/25 12:14:43;;;;;;;22.05;20.85;;;4.60;82.70;;;;;;5052622;28;20191;-78
2020/12/25 12:17:09;;;;;;;23.55;22.10;;;4.60;82.70;;;;;;5052598;28;20216;-78
2020/12/25 12:19:36;;;;;;;22.90;21.52;;;4.60;83.30;;;;;;5033520;28;20193;-78
2020/12/25 12:22:02;;;;;;;22.20;20.90;;;4.60;83.20;;;;;;5033012;28;20217;-78
2020/12/25 12:24:28;;;;;;;22.70;21.40;;;4.40;81.80;;;;;;5033109;28;20287;-78
2020/12/25 12:26:55;;;;;;;23.17;21.77;;;4.30;81.50;;;;;;5033151;28;20225;-77
2020/12/25 12:29:21;;;;;;;24.35;22.80;;;4.10;81.50;;;;;;5051191;28;20197;-78
2020/12/25 12:31:48;;;;;;;22.10;20.85;;;4.00;82.50;;;;;;5053103;28;20192;-78
2020/12/25 12:34:15;;;;;;;22.77;21.45;;;3.90;82.60;;;;;;5053824;28;20196;-78
2020/12/25 12:36:45;;;;;;;22.67;21.38;;;3.90;83.20;;;;;;5045411;28;20304;-78